-> Other stations

1455

Speed(max): 6.5(8.1)knots
Direction:45° ( NE)
Temperature: 29.1°C
Arrived: 2026-09-06 13:53:30 CEST

Past data:
hh:mmknots
Dir (°)
°C
13:51 6.5 8.1 NE(35) 29.0
13:49 6.5 8.1 NE(37) 29.0
13:47 7 8.6 NNE(30) 29.1
13:45 8.1 9.2 NE(37) 29.1
13:43 8.1 10.3 NNE(33) 29.1
13:41 8.6 10.3 NNE(30) 29.0
13:39 8.1 9.2 NE(39) 29.0
13:37 8.6 10.3 NNE(27) 29.0
13:35 8.6 10.8 NE(38) 29.0
13:33 8.1 10.3 NNE(32) 29.1
13:31 8.6 10.3 NNE(32) 29.0
13:29 8.6 10.8 NNE(33) 28.8
13:27 9.2 10.8 NNE(31) 28.8
13:25 9.7 11.3 NNE(31) 29.0
15 min. averages:
hh:mmknots
Dir (°)
°C
13:45 8.6 10.8 NNE(33) 29.0
13:30 9.2 11.9 NNE(32) 29.0
13:15 9.7 12.4 NNE(25) 29.1
13:00 10.8 14 NNE(22) 29.0
12:45 10.3 13.5 NNE(23) 28.9
12:30 10.3 14 NNE(27) 28.7
12:15 10.8 13.5 NNE(25) 28.9
12:00 10.8 14.6 NNE(27) 29.5
11:45 10.8 14.6 NNE(29) 29.7
11:30 11.3 15.1 NNE(26) 29.8
11:15 12.4 15.7 NNE(22) 29.8
11:00 13 18.4 NNE(16) 29.7
10:45 13 17.3 NNE(23) 29.6
10:30 14.6 18.4 NNE(23) 29.2
10:15 14.6 18.9 NNE(20) 29.2
Stations at HR:
1455
-> Other regions

Desktop view
Data provided by Holfuy.
© Holfuy Weather 2026